sensor_id;sensor_type;location;lat;lon;timestamp;P1;durP1;ratioP1;P2;durP2;ratioP2
29344;SDS011;16339;48.748;2.222;2022-11-15T00:01:40;14.45;;;5.43;;
29344;SDS011;16339;48.748;2.222;2022-11-15T00:04:09;15.80;;;4.80;;
29344;SDS011;16339;48.748;2.222;2022-11-15T00:06:38;10.18;;;4.45;;
29344;SDS011;16339;48.748;2.222;2022-11-15T00:09:06;10.05;;;4.88;;
29344;SDS011;16339;48.748;2.222;2022-11-15T00:11:39;16.73;;;4.05;;
29344;SDS011;16339;48.748;2.222;2022-11-15T00:14:17;19.88;;;3.97;;
29344;SDS011;16339;48.748;2.222;2022-11-15T00:16:47;19.33;;;3.47;;
29344;SDS011;16339;48.748;2.222;2022-11-15T00:19:16;10.32;;;3.15;;
29344;SDS011;16339;48.748;2.222;2022-11-15T00:21:45;16.33;;;3.50;;
29344;SDS011;16339;48.748;2.222;2022-11-15T00:24:13;13.13;;;3.25;;
29344;SDS011;16339;48.748;2.222;2022-11-15T00:26:42;15.65;;;3.75;;
29344;SDS011;16339;48.748;2.222;2022-11-15T00:29:24;16.92;;;4.07;;
29344;SDS011;16339;48.748;2.222;2022-11-15T00:31:55;12.82;;;3.72;;
29344;SDS011;16339;48.748;2.222;2022-11-15T00:34:24;17.95;;;4.22;;
29344;SDS011;16339;48.748;2.222;2022-11-15T00:36:53;11.68;;;4.57;;
29344;SDS011;16339;48.748;2.222;2022-11-15T00:39:21;12.38;;;4.25;;
29344;SDS011;16339;48.748;2.222;2022-11-15T00:41:53;20.05;;;4.28;;
29344;SDS011;16339;48.748;2.222;2022-11-15T00:44:24;15.02;;;4.15;;
29344;SDS011;16339;48.748;2.222;2022-11-15T00:49:21;15.27;;;4.22;;
29344;SDS011;16339;48.748;2.222;2022-11-15T00:51:52;18.55;;;4.28;;
29344;SDS011;16339;48.748;2.222;2022-11-15T00:54:21;15.00;;;3.97;;
29344;SDS011;16339;48.748;2.222;2022-11-15T00:56:50;17.15;;;4.15;;
29344;SDS011;16339;48.748;2.222;2022-11-15T00:59:18;9.20;;;3.85;;
29344;SDS011;16339;48.748;2.222;2022-11-15T01:01:51;14.55;;;4.20;;
29344;SDS011;16339;48.748;2.222;2022-11-15T01:04:21;13.93;;;3.90;;
29344;SDS011;16339;48.748;2.222;2022-11-15T01:06:49;12.13;;;3.70;;
29344;SDS011;16339;48.748;2.222;2022-11-15T01:09:19;15.30;;;3.90;;
29344;SDS011;16339;48.748;2.222;2022-11-15T01:11:49;16.00;;;3.63;;
29344;SDS011;16339;48.748;2.222;2022-11-15T01:16:52;11.05;;;3.60;;
29344;SDS011;16339;48.748;2.222;2022-11-15T01:19:21;10.02;;;3.80;;
29344;SDS011;16339;48.748;2.222;2022-11-15T01:22:15;15.40;;;4.28;;
29344;SDS011;16339;48.748;2.222;2022-11-15T01:24:47;14.27;;;3.60;;
29344;SDS011;16339;48.748;2.222;2022-11-15T01:27:17;13.23;;;3.55;;
29344;SDS011;16339;48.748;2.222;2022-11-15T01:29:55;18.73;;;4.20;;
29344;SDS011;16339;48.748;2.222;2022-11-15T01:32:26;11.68;;;3.72;;
29344;SDS011;16339;48.748;2.222;2022-11-15T01:37:32;9.88;;;3.20;;
29344;SDS011;16339;48.748;2.222;2022-11-15T01:40:01;9.43;;;3.10;;
29344;SDS011;16339;48.748;2.222;2022-11-15T01:42:30;17.02;;;3.28;;
29344;SDS011;16339;48.748;2.222;2022-11-15T01:45:00;10.52;;;3.33;;
29344;SDS011;16339;48.748;2.222;2022-11-15T01:47:35;18.45;;;3.53;;
29344;SDS011;16339;48.748;2.222;2022-11-15T01:50:14;37.33;;;13.98;;
29344;SDS011;16339;48.748;2.222;2022-11-15T01:52:46;26.60;;;9.18;;
29344;SDS011;16339;48.748;2.222;2022-11-15T01:55:16;15.48;;;5.03;;
29344;SDS011;16339;48.748;2.222;2022-11-15T01:57:49;20.92;;;3.67;;
29344;SDS011;16339;48.748;2.222;2022-11-15T02:00:22;9.02;;;3.15;;
29344;SDS011;16339;48.748;2.222;2022-11-15T02:02:54;10.63;;;2.85;;
29344;SDS011;16339;48.748;2.222;2022-11-15T02:05:29;17.10;;;3.05;;
29344;SDS011;16339;48.748;2.222;2022-11-15T02:08:01;11.48;;;2.92;;
29344;SDS011;16339;48.748;2.222;2022-11-15T02:10:30;10.82;;;2.88;;
29344;SDS011;16339;48.748;2.222;2022-11-15T02:13:03;10.75;;;2.88;;
29344;SDS011;16339;48.748;2.222;2022-11-15T02:15:43;10.32;;;3.00;;
29344;SDS011;16339;48.748;2.222;2022-11-15T02:18:23;13.80;;;2.97;;
29344;SDS011;16339;48.748;2.222;2022-11-15T02:21:09;20.40;;;3.55;;
29344;SDS011;16339;48.748;2.222;2022-11-15T02:23:53;12.70;;;2.88;;
29344;SDS011;16339;48.748;2.222;2022-11-15T02:32:52;10.95;;;2.53;;
29344;SDS011;16339;48.748;2.222;2022-11-15T02:35:29;9.10;;;3.05;;
29344;SDS011;16339;48.748;2.222;2022-11-15T02:38:08;14.18;;;3.40;;
29344;SDS011;16339;48.748;2.222;2022-11-15T02:40:45;18.25;;;3.40;;
29344;SDS011;16339;48.748;2.222;2022-11-15T02:43:21;12.75;;;3.00;;
29344;SDS011;16339;48.748;2.222;2022-11-15T02:46:14;9.05;;;2.78;;
29344;SDS011;16339;48.748;2.222;2022-11-15T02:48:56;13.77;;;3.00;;
29344;SDS011;16339;48.748;2.222;2022-11-15T02:51:27;12.90;;;3.00;;
29344;SDS011;16339;48.748;2.222;2022-11-15T02:53:56;10.57;;;2.75;;
29344;SDS011;16339;48.748;2.222;2022-11-15T02:56:25;10.82;;;2.78;;
29344;SDS011;16339;48.748;2.222;2022-11-15T03:01:59;13.10;;;3.20;;
29344;SDS011;16339;48.748;2.222;2022-11-15T03:04:37;9.65;;;2.90;;
29344;SDS011;16339;48.748;2.222;2022-11-15T03:07:12;11.20;;;3.08;;
29344;SDS011;16339;48.748;2.222;2022-11-15T03:09:48;16.50;;;3.28;;
29344;SDS011;16339;48.748;2.222;2022-11-15T03:12:23;9.50;;;3.22;;
29344;SDS011;16339;48.748;2.222;2022-11-15T03:14:59;22.38;;;3.53;;
29344;SDS011;16339;48.748;2.222;2022-11-15T03:17:35;12.68;;;3.58;;
29344;SDS011;16339;48.748;2.222;2022-11-15T03:20:11;14.02;;;3.33;;
29344;SDS011;16339;48.748;2.222;2022-11-15T03:22:44;14.18;;;3.40;;
29344;SDS011;16339;48.748;2.222;2022-11-15T03:25:19;11.60;;;3.42;;
29344;SDS011;16339;48.748;2.222;2022-11-15T03:27:52;16.25;;;4.35;;
29344;SDS011;16339;48.748;2.222;2022-11-15T03:30:23;18.00;;;4.57;;
29344;SDS011;16339;48.748;2.222;2022-11-15T03:32:57;16.67;;;3.60;;
29344;SDS011;16339;48.748;2.222;2022-11-15T03:35:32;11.20;;;3.65;;
29344;SDS011;16339;48.748;2.222;2022-11-15T03:38:06;18.77;;;3.92;;
29344;SDS011;16339;48.748;2.222;2022-11-15T03:40:39;13.43;;;3.30;;
29344;SDS011;16339;48.748;2.222;2022-11-15T03:43:18;11.20;;;3.25;;
29344;SDS011;16339;48.748;2.222;2022-11-15T03:45:54;14.90;;;3.45;;
29344;SDS011;16339;48.748;2.222;2022-11-15T03:48:30;13.77;;;3.33;;
29344;SDS011;16339;48.748;2.222;2022-11-15T03:51:05;9.70;;;3.33;;
29344;SDS011;16339;48.748;2.222;2022-11-15T03:53:34;8.88;;;3.15;;
29344;SDS011;16339;48.748;2.222;2022-11-15T03:56:03;14.48;;;3.30;;
29344;SDS011;16339;48.748;2.222;2022-11-15T03:58:34;13.73;;;3.65;;
29344;SDS011;16339;48.748;2.222;2022-11-15T04:01:03;11.48;;;3.30;;
29344;SDS011;16339;48.748;2.222;2022-11-15T04:03:34;12.18;;;3.20;;
29344;SDS011;16339;48.748;2.222;2022-11-15T04:06:03;10.27;;;3.28;;
29344;SDS011;16339;48.748;2.222;2022-11-15T04:08:43;15.15;;;3.88;;
29344;SDS011;16339;48.748;2.222;2022-11-15T04:11:11;15.13;;;3.72;;
29344;SDS011;16339;48.748;2.222;2022-11-15T04:13:40;10.70;;;3.42;;
29344;SDS011;16339;48.748;2.222;2022-11-15T04:16:09;10.23;;;3.60;;
29344;SDS011;16339;48.748;2.222;2022-11-15T04:18:42;10.10;;;3.63;;
29344;SDS011;16339;48.748;2.222;2022-11-15T04:21:33;11.68;;;3.55;;
29344;SDS011;16339;48.748;2.222;2022-11-15T04:24:14;14.38;;;4.13;;
29344;SDS011;16339;48.748;2.222;2022-11-15T04:26:44;9.10;;;3.70;;
29344;SDS011;16339;48.748;2.222;2022-11-15T04:29:13;9.70;;;3.40;;
29344;SDS011;16339;48.748;2.222;2022-11-15T04:31:56;14.25;;;3.60;;
29344;SDS011;16339;48.748;2.222;2022-11-15T04:34:27;7.32;;;3.38;;
29344;SDS011;16339;48.748;2.222;2022-11-15T04:39:37;10.77;;;3.53;;
29344;SDS011;16339;48.748;2.222;2022-11-15T04:42:08;8.02;;;3.15;;
29344;SDS011;16339;48.748;2.222;2022-11-15T04:44:38;12.00;;;3.95;;
29344;SDS011;16339;48.748;2.222;2022-11-15T04:47:08;10.38;;;4.28;;
29344;SDS011;16339;48.748;2.222;2022-11-15T04:49:40;12.25;;;3.70;;
29344;SDS011;16339;48.748;2.222;2022-11-15T04:52:09;12.23;;;4.13;;
29344;SDS011;16339;48.748;2.222;2022-11-15T04:54:41;10.48;;;3.70;;
29344;SDS011;16339;48.748;2.222;2022-11-15T04:57:10;11.23;;;4.03;;
29344;SDS011;16339;48.748;2.222;2022-11-15T04:59:41;13.27;;;3.58;;
29344;SDS011;16339;48.748;2.222;2022-11-15T05:02:10;13.52;;;4.07;;
29344;SDS011;16339;48.748;2.222;2022-11-15T05:04:42;11.15;;;3.67;;
29344;SDS011;16339;48.748;2.222;2022-11-15T05:07:08;13.18;;;4.00;;
29344;SDS011;16339;48.748;2.222;2022-11-15T05:09:42;13.82;;;3.33;;
29344;SDS011;16339;48.748;2.222;2022-11-15T05:12:10;14.88;;;3.63;;
29344;SDS011;16339;48.748;2.222;2022-11-15T05:14:39;10.25;;;3.70;;
29344;SDS011;16339;48.748;2.222;2022-11-15T05:17:08;16.85;;;4.05;;
29344;SDS011;16339;48.748;2.222;2022-11-15T05:19:37;13.98;;;3.70;;
29344;SDS011;16339;48.748;2.222;2022-11-15T05:22:12;10.15;;;3.60;;
29344;SDS011;16339;48.748;2.222;2022-11-15T05:24:40;10.32;;;3.85;;
29344;SDS011;16339;48.748;2.222;2022-11-15T05:27:09;13.15;;;4.15;;
29344;SDS011;16339;48.748;2.222;2022-11-15T05:29:38;11.55;;;3.50;;
29344;SDS011;16339;48.748;2.222;2022-11-15T05:32:07;14.48;;;4.45;;
29344;SDS011;16339;48.748;2.222;2022-11-15T05:34:37;13.27;;;4.20;;
29344;SDS011;16339;48.748;2.222;2022-11-15T05:37:06;16.00;;;3.95;;
29344;SDS011;16339;48.748;2.222;2022-11-15T05:39:38;13.95;;;3.45;;
29344;SDS011;16339;48.748;2.222;2022-11-15T05:42:07;12.05;;;4.38;;
29344;SDS011;16339;48.748;2.222;2022-11-15T05:44:38;12.57;;;3.50;;
29344;SDS011;16339;48.748;2.222;2022-11-15T05:47:10;11.25;;;3.47;;
29344;SDS011;16339;48.748;2.222;2022-11-15T05:52:10;5.88;;;2.88;;
29344;SDS011;16339;48.748;2.222;2022-11-15T05:54:45;10.43;;;3.25;;
29344;SDS011;16339;48.748;2.222;2022-11-15T05:57:14;11.57;;;3.22;;
29344;SDS011;16339;48.748;2.222;2022-11-15T05:59:43;8.02;;;3.53;;
29344;SDS011;16339;48.748;2.222;2022-11-15T06:02:12;10.30;;;3.47;;
29344;SDS011;16339;48.748;2.222;2022-11-15T06:04:41;19.90;;;3.90;;
29344;SDS011;16339;48.748;2.222;2022-11-15T06:07:09;10.00;;;3.75;;
29344;SDS011;16339;48.748;2.222;2022-11-15T06:09:38;16.05;;;3.78;;
29344;SDS011;16339;48.748;2.222;2022-11-15T06:12:13;21.67;;;4.05;;
29344;SDS011;16339;48.748;2.222;2022-11-15T06:14:42;15.18;;;4.18;;
29344;SDS011;16339;48.748;2.222;2022-11-15T06:17:11;14.38;;;4.00;;
29344;SDS011;16339;48.748;2.222;2022-11-15T06:19:39;15.88;;;4.55;;
29344;SDS011;16339;48.748;2.222;2022-11-15T06:22:08;14.15;;;4.30;;
29344;SDS011;16339;48.748;2.222;2022-11-15T06:24:38;12.68;;;4.20;;
29344;SDS011;16339;48.748;2.222;2022-11-15T06:27:09;14.68;;;4.50;;
29344;SDS011;16339;48.748;2.222;2022-11-15T06:29:41;19.10;;;4.40;;
29344;SDS011;16339;48.748;2.222;2022-11-15T06:32:10;14.93;;;4.53;;
29344;SDS011;16339;48.748;2.222;2022-11-15T06:34:38;10.63;;;5.07;;
29344;SDS011;16339;48.748;2.222;2022-11-15T06:37:07;18.35;;;5.50;;
29344;SDS011;16339;48.748;2.222;2022-11-15T06:39:37;12.43;;;4.70;;
29344;SDS011;16339;48.748;2.222;2022-11-15T06:42:07;17.50;;;4.97;;
29344;SDS011;16339;48.748;2.222;2022-11-15T06:44:39;10.00;;;4.70;;
29344;SDS011;16339;48.748;2.222;2022-11-15T06:47:08;25.00;;;5.68;;
29344;SDS011;16339;48.748;2.222;2022-11-15T06:49:36;13.02;;;5.45;;
29344;SDS011;16339;48.748;2.222;2022-11-15T06:52:05;13.02;;;5.22;;
29344;SDS011;16339;48.748;2.222;2022-11-15T06:54:34;15.13;;;4.63;;
29344;SDS011;16339;48.748;2.222;2022-11-15T06:57:03;11.23;;;4.47;;
29344;SDS011;16339;48.748;2.222;2022-11-15T06:59:32;8.38;;;4.32;;
29344;SDS011;16339;48.748;2.222;2022-11-15T07:02:04;12.93;;;4.25;;
29344;SDS011;16339;48.748;2.222;2022-11-15T07:04:33;13.77;;;4.00;;
29344;SDS011;16339;48.748;2.222;2022-11-15T07:07:02;11.77;;;4.40;;
29344;SDS011;16339;48.748;2.222;2022-11-15T07:09:31;15.98;;;3.97;;
29344;SDS011;16339;48.748;2.222;2022-11-15T07:12:00;13.35;;;4.03;;
29344;SDS011;16339;48.748;2.222;2022-11-15T07:14:28;11.85;;;4.13;;
29344;SDS011;16339;48.748;2.222;2022-11-15T07:16:57;15.13;;;4.13;;
29344;SDS011;16339;48.748;2.222;2022-11-15T07:19:28;24.40;;;3.97;;
29344;SDS011;16339;48.748;2.222;2022-11-15T07:21:57;13.27;;;3.88;;
29344;SDS011;16339;48.748;2.222;2022-11-15T07:24:26;14.32;;;3.75;;
29344;SDS011;16339;48.748;2.222;2022-11-15T07:26:54;9.43;;;3.83;;
29344;SDS011;16339;48.748;2.222;2022-11-15T07:29:23;11.52;;;4.10;;
29344;SDS011;16339;48.748;2.222;2022-11-15T07:31:52;9.05;;;3.80;;
29344;SDS011;16339;48.748;2.222;2022-11-15T07:34:21;13.25;;;4.47;;
29344;SDS011;16339;48.748;2.222;2022-11-15T07:36:52;18.45;;;4.32;;
29344;SDS011;16339;48.748;2.222;2022-11-15T07:39:21;17.98;;;5.45;;
29344;SDS011;16339;48.748;2.222;2022-11-15T07:41:49;23.73;;;6.20;;
29344;SDS011;16339;48.748;2.222;2022-11-15T07:44:38;18.63;;;5.38;;
29344;SDS011;16339;48.748;2.222;2022-11-15T07:47:07;19.58;;;5.10;;
29344;SDS011;16339;48.748;2.222;2022-11-15T07:49:35;19.05;;;5.78;;
29344;SDS011;16339;48.748;2.222;2022-11-15T07:52:07;16.70;;;5.05;;
29344;SDS011;16339;48.748;2.222;2022-11-15T07:54:35;14.20;;;4.30;;
29344;SDS011;16339;48.748;2.222;2022-11-15T07:57:04;10.82;;;4.28;;
29344;SDS011;16339;48.748;2.222;2022-11-15T07:59:34;17.30;;;4.55;;
29344;SDS011;16339;48.748;2.222;2022-11-15T08:02:03;20.13;;;5.43;;
29344;SDS011;16339;48.748;2.222;2022-11-15T08:04:31;17.15;;;4.70;;
29344;SDS011;16339;48.748;2.222;2022-11-15T08:07:00;13.88;;;3.88;;
29344;SDS011;16339;48.748;2.222;2022-11-15T08:09:31;16.65;;;4.57;;
29344;SDS011;16339;48.748;2.222;2022-11-15T08:12:00;10.55;;;4.90;;
29344;SDS011;16339;48.748;2.222;2022-11-15T08:14:29;17.17;;;4.45;;
29344;SDS011;16339;48.748;2.222;2022-11-15T08:16:57;15.20;;;4.28;;
29344;SDS011;16339;48.748;2.222;2022-11-15T08:19:26;13.95;;;5.03;;
29344;SDS011;16339;48.748;2.222;2022-11-15T08:21:55;13.88;;;4.40;;
29344;SDS011;16339;48.748;2.222;2022-11-15T08:24:23;11.07;;;3.72;;
29344;SDS011;16339;48.748;2.222;2022-11-15T08:26:56;18.80;;;4.10;;
29344;SDS011;16339;48.748;2.222;2022-11-15T08:29:25;21.45;;;4.63;;
29344;SDS011;16339;48.748;2.222;2022-11-15T08:31:54;12.75;;;3.90;;
29344;SDS011;16339;48.748;2.222;2022-11-15T08:34:23;15.93;;;4.28;;
29344;SDS011;16339;48.748;2.222;2022-11-15T08:36:52;13.60;;;4.97;;
29344;SDS011;16339;48.748;2.222;2022-11-15T08:39:20;14.40;;;4.53;;
29344;SDS011;16339;48.748;2.222;2022-11-15T08:41:49;11.43;;;4.40;;
29344;SDS011;16339;48.748;2.222;2022-11-15T08:44:20;10.77;;;4.15;;
29344;SDS011;16339;48.748;2.222;2022-11-15T08:46:49;12.32;;;3.50;;
29344;SDS011;16339;48.748;2.222;2022-11-15T08:49:18;9.95;;;3.78;;
29344;SDS011;16339;48.748;2.222;2022-11-15T08:51:46;6.90;;;3.22;;
29344;SDS011;16339;48.748;2.222;2022-11-15T08:54:16;10.15;;;3.45;;
29344;SDS011;16339;48.748;2.222;2022-11-15T08:56:45;7.00;;;3.03;;
29344;SDS011;16339;48.748;2.222;2022-11-15T08:59:14;11.63;;;4.15;;
29344;SDS011;16339;48.748;2.222;2022-11-15T09:01:46;15.10;;;3.50;;
29344;SDS011;16339;48.748;2.222;2022-11-15T09:04:15;8.75;;;3.13;;
29344;SDS011;16339;48.748;2.222;2022-11-15T09:06:45;15.38;;;3.65;;
29344;SDS011;16339;48.748;2.222;2022-11-15T09:09:14;12.82;;;3.85;;
29344;SDS011;16339;48.748;2.222;2022-11-15T09:11:42;9.48;;;3.33;;
29344;SDS011;16339;48.748;2.222;2022-11-15T09:14:11;10.38;;;3.17;;
29344;SDS011;16339;48.748;2.222;2022-11-15T09:16:41;7.35;;;3.20;;
29344;SDS011;16339;48.748;2.222;2022-11-15T09:19:12;9.35;;;3.00;;
29344;SDS011;16339;48.748;2.222;2022-11-15T09:21:41;9.40;;;3.35;;
29344;SDS011;16339;48.748;2.222;2022-11-15T09:24:10;10.52;;;3.00;;
29344;SDS011;16339;48.748;2.222;2022-11-15T09:26:39;10.40;;;2.92;;
29344;SDS011;16339;48.748;2.222;2022-11-15T09:29:07;6.45;;;2.03;;
29344;SDS011;16339;48.748;2.222;2022-11-15T09:31:36;7.90;;;2.20;;
29344;SDS011;16339;48.748;2.222;2022-11-15T09:34:05;6.45;;;2.75;;
29344;SDS011;16339;48.748;2.222;2022-11-15T09:36:36;8.25;;;2.55;;
29344;SDS011;16339;48.748;2.222;2022-11-15T09:39:04;7.90;;;2.35;;
29344;SDS011;16339;48.748;2.222;2022-11-15T09:44:47;5.72;;;2.47;;
29344;SDS011;16339;48.748;2.222;2022-11-15T09:47:32;11.18;;;2.63;;
29344;SDS011;16339;48.748;2.222;2022-11-15T09:50:28;11.00;;;2.50;;
29344;SDS011;16339;48.748;2.222;2022-11-15T09:53:08;5.68;;;2.47;;
29344;SDS011;16339;48.748;2.222;2022-11-15T09:55:40;8.75;;;2.30;;
29344;SDS011;16339;48.748;2.222;2022-11-15T09:58:18;11.25;;;2.25;;
29344;SDS011;16339;48.748;2.222;2022-11-15T10:00:55;10.13;;;2.20;;
29344;SDS011;16339;48.748;2.222;2022-11-15T10:03:29;6.55;;;2.97;;
29344;SDS011;16339;48.748;2.222;2022-11-15T10:06:02;12.43;;;3.00;;
29344;SDS011;16339;48.748;2.222;2022-11-15T10:08:40;8.77;;;2.85;;
29344;SDS011;16339;48.748;2.222;2022-11-15T10:11:19;8.40;;;2.42;;
29344;SDS011;16339;48.748;2.222;2022-11-15T10:13:51;8.02;;;2.67;;
29344;SDS011;16339;48.748;2.222;2022-11-15T10:19:26;10.18;;;3.15;;
29344;SDS011;16339;48.748;2.222;2022-11-15T10:22:05;10.88;;;2.80;;
29344;SDS011;16339;48.748;2.222;2022-11-15T10:24:58;10.13;;;2.63;;
29344;SDS011;16339;48.748;2.222;2022-11-15T10:27:37;6.43;;;3.03;;
29344;SDS011;16339;48.748;2.222;2022-11-15T10:30:10;5.50;;;2.55;;
29344;SDS011;16339;48.748;2.222;2022-11-15T10:32:43;9.63;;;3.17;;
29344;SDS011;16339;48.748;2.222;2022-11-15T10:35:20;10.18;;;3.10;;
29344;SDS011;16339;48.748;2.222;2022-11-15T10:37:51;7.43;;;3.35;;
29344;SDS011;16339;48.748;2.222;2022-11-15T10:40:27;6.38;;;2.90;;
29344;SDS011;16339;48.748;2.222;2022-11-15T10:43:03;8.73;;;3.60;;
29344;SDS011;16339;48.748;2.222;2022-11-15T10:45:34;10.93;;;3.20;;
29344;SDS011;16339;48.748;2.222;2022-11-15T10:48:19;11.20;;;3.63;;
29344;SDS011;16339;48.748;2.222;2022-11-15T10:50:50;8.18;;;3.33;;
29344;SDS011;16339;48.748;2.222;2022-11-15T10:53:23;10.55;;;3.85;;
29344;SDS011;16339;48.748;2.222;2022-11-15T10:56:01;8.77;;;4.15;;
29344;SDS011;16339;48.748;2.222;2022-11-15T10:58:34;13.25;;;3.78;;
29344;SDS011;16339;48.748;2.222;2022-11-15T11:01:15;11.38;;;3.92;;
29344;SDS011;16339;48.748;2.222;2022-11-15T11:03:45;10.15;;;4.47;;
29344;SDS011;16339;48.748;2.222;2022-11-15T11:06:27;13.57;;;4.93;;
29344;SDS011;16339;48.748;2.222;2022-11-15T11:08:56;11.45;;;4.47;;
29344;SDS011;16339;48.748;2.222;2022-11-15T11:11:44;10.85;;;4.60;;
29344;SDS011;16339;48.748;2.222;2022-11-15T11:14:16;9.00;;;3.83;;
29344;SDS011;16339;48.748;2.222;2022-11-15T11:16:51;10.90;;;3.92;;
29344;SDS011;16339;48.748;2.222;2022-11-15T11:19:31;10.48;;;4.28;;
29344;SDS011;16339;48.748;2.222;2022-11-15T11:22:20;11.63;;;4.68;;
29344;SDS011;16339;48.748;2.222;2022-11-15T11:24:56;14.63;;;4.85;;
29344;SDS011;16339;48.748;2.222;2022-11-15T11:27:39;8.60;;;4.80;;
29344;SDS011;16339;48.748;2.222;2022-11-15T11:30:14;11.75;;;5.20;;
29344;SDS011;16339;48.748;2.222;2022-11-15T11:35:50;9.70;;;4.82;;
29344;SDS011;16339;48.748;2.222;2022-11-15T11:38:32;9.50;;;5.32;;
29344;SDS011;16339;48.748;2.222;2022-11-15T11:41:10;10.40;;;5.35;;
29344;SDS011;16339;48.748;2.222;2022-11-15T11:43:51;11.05;;;4.90;;
29344;SDS011;16339;48.748;2.222;2022-11-15T11:46:37;13.65;;;5.32;;
29344;SDS011;16339;48.748;2.222;2022-11-15T11:49:16;10.38;;;5.03;;
29344;SDS011;16339;48.748;2.222;2022-11-15T11:51:51;15.43;;;5.25;;
29344;SDS011;16339;48.748;2.222;2022-11-15T11:54:25;9.65;;;4.57;;
29344;SDS011;16339;48.748;2.222;2022-11-15T11:57:03;9.73;;;4.72;;
29344;SDS011;16339;48.748;2.222;2022-11-15T11:59:39;10.45;;;4.90;;
29344;SDS011;16339;48.748;2.222;2022-11-15T12:02:13;8.27;;;4.70;;
29344;SDS011;16339;48.748;2.222;2022-11-15T12:04:47;10.95;;;5.25;;
29344;SDS011;16339;48.748;2.222;2022-11-15T12:07:20;9.88;;;5.30;;
29344;SDS011;16339;48.748;2.222;2022-11-15T12:09:55;9.65;;;5.15;;
29344;SDS011;16339;48.748;2.222;2022-11-15T12:12:29;13.98;;;5.68;;
29344;SDS011;16339;48.748;2.222;2022-11-15T12:15:09;9.73;;;5.60;;
29344;SDS011;16339;48.748;2.222;2022-11-15T12:17:44;8.32;;;5.25;;
29344;SDS011;16339;48.748;2.222;2022-11-15T12:20:15;12.10;;;5.20;;
29344;SDS011;16339;48.748;2.222;2022-11-15T12:22:47;13.10;;;5.25;;
29344;SDS011;16339;48.748;2.222;2022-11-15T12:25:21;16.52;;;6.07;;
29344;SDS011;16339;48.748;2.222;2022-11-15T12:27:54;9.70;;;5.05;;
29344;SDS011;16339;48.748;2.222;2022-11-15T12:30:31;11.85;;;4.60;;
29344;SDS011;16339;48.748;2.222;2022-11-15T12:36:02;11.40;;;5.55;;
29344;SDS011;16339;48.748;2.222;2022-11-15T12:41:24;11.27;;;5.55;;
29344;SDS011;16339;48.748;2.222;2022-11-15T12:43:54;12.05;;;5.57;;
29344;SDS011;16339;48.748;2.222;2022-11-15T12:52:20;9.77;;;4.78;;
29344;SDS011;16339;48.748;2.222;2022-11-15T12:54:53;10.95;;;4.97;;
29344;SDS011;16339;48.748;2.222;2022-11-15T12:57:31;11.60;;;5.00;;
29344;SDS011;16339;48.748;2.222;2022-11-15T13:00:36;16.17;;;5.28;;
29344;SDS011;16339;48.748;2.222;2022-11-15T13:03:17;10.07;;;5.13;;
29344;SDS011;16339;48.748;2.222;2022-11-15T13:06:06;20.48;;;6.10;;
29344;SDS011;16339;48.748;2.222;2022-11-15T13:08:57;12.95;;;5.03;;
29344;SDS011;16339;48.748;2.222;2022-11-15T13:11:42;9.38;;;4.82;;
29344;SDS011;16339;48.748;2.222;2022-11-15T13:17:16;12.18;;;5.15;;
29344;SDS011;16339;48.748;2.222;2022-11-15T13:20:16;8.60;;;4.53;;
29344;SDS011;16339;48.748;2.222;2022-11-15T13:22:53;13.05;;;4.68;;
29344;SDS011;16339;48.748;2.222;2022-11-15T13:28:21;10.50;;;4.80;;
29344;SDS011;16339;48.748;2.222;2022-11-15T13:30:55;9.88;;;4.40;;
29344;SDS011;16339;48.748;2.222;2022-11-15T13:33:27;6.80;;;4.68;;
29344;SDS011;16339;48.748;2.222;2022-11-15T13:36:01;13.93;;;4.85;;
29344;SDS011;16339;48.748;2.222;2022-11-15T13:38:34;10.35;;;5.35;;
29344;SDS011;16339;48.748;2.222;2022-11-15T13:41:11;11.02;;;5.07;;
29344;SDS011;16339;48.748;2.222;2022-11-15T13:43:46;15.88;;;5.18;;
29344;SDS011;16339;48.748;2.222;2022-11-15T13:46:16;15.13;;;5.57;;
29344;SDS011;16339;48.748;2.222;2022-11-15T13:48:46;10.35;;;5.15;;
29344;SDS011;16339;48.748;2.222;2022-11-15T13:51:19;9.45;;;5.35;;
29344;SDS011;16339;48.748;2.222;2022-11-15T13:53:55;13.18;;;5.68;;
29344;SDS011;16339;48.748;2.222;2022-11-15T13:56:26;13.38;;;6.00;;
29344;SDS011;16339;48.748;2.222;2022-11-15T13:58:56;12.68;;;6.43;;
29344;SDS011;16339;48.748;2.222;2022-11-15T14:01:25;14.27;;;6.53;;
29344;SDS011;16339;48.748;2.222;2022-11-15T14:03:59;14.13;;;7.10;;
29344;SDS011;16339;48.748;2.222;2022-11-15T14:06:29;17.05;;;6.88;;
29344;SDS011;16339;48.748;2.222;2022-11-15T14:12:02;15.77;;;6.47;;
29344;SDS011;16339;48.748;2.222;2022-11-15T14:14:46;13.55;;;6.40;;
29344;SDS011;16339;48.748;2.222;2022-11-15T14:17:18;9.70;;;6.20;;
29344;SDS011;16339;48.748;2.222;2022-11-15T14:19:48;12.27;;;6.40;;
29344;SDS011;16339;48.748;2.222;2022-11-15T14:22:19;13.13;;;6.20;;
29344;SDS011;16339;48.748;2.222;2022-11-15T14:25:07;12.75;;;6.32;;
29344;SDS011;16339;48.748;2.222;2022-11-15T14:27:44;11.70;;;6.88;;
29344;SDS011;16339;48.748;2.222;2022-11-15T14:30:35;17.10;;;7.78;;
29344;SDS011;16339;48.748;2.222;2022-11-15T14:33:13;12.82;;;7.60;;
29344;SDS011;16339;48.748;2.222;2022-11-15T14:35:47;12.02;;;7.22;;
29344;SDS011;16339;48.748;2.222;2022-11-15T14:38:16;14.95;;;7.38;;
29344;SDS011;16339;48.748;2.222;2022-11-15T14:40:45;15.52;;;7.75;;
29344;SDS011;16339;48.748;2.222;2022-11-15T14:43:13;15.48;;;7.72;;
29344;SDS011;16339;48.748;2.222;2022-11-15T14:45:45;19.48;;;8.07;;
29344;SDS011;16339;48.748;2.222;2022-11-15T14:50:42;12.43;;;7.97;;
29344;SDS011;16339;48.748;2.222;2022-11-15T14:53:12;17.40;;;9.45;;
29344;SDS011;16339;48.748;2.222;2022-11-15T14:55:43;18.20;;;9.65;;
29344;SDS011;16339;48.748;2.222;2022-11-15T14:58:11;18.30;;;10.88;;
29344;SDS011;16339;48.748;2.222;2022-11-15T15:00:40;19.98;;;10.60;;
29344;SDS011;16339;48.748;2.222;2022-11-15T15:03:12;20.20;;;10.70;;
29344;SDS011;16339;48.748;2.222;2022-11-15T15:05:43;24.30;;;11.63;;
29344;SDS011;16339;48.748;2.222;2022-11-15T15:08:12;23.80;;;11.02;;
29344;SDS011;16339;48.748;2.222;2022-11-15T15:10:42;20.90;;;11.00;;
29344;SDS011;16339;48.748;2.222;2022-11-15T15:13:15;28.95;;;11.98;;
29344;SDS011;16339;48.748;2.222;2022-11-15T15:15:45;20.00;;;10.80;;
29344;SDS011;16339;48.748;2.222;2022-11-15T15:18:17;28.75;;;11.70;;
29344;SDS011;16339;48.748;2.222;2022-11-15T15:20:48;22.02;;;11.35;;
29344;SDS011;16339;48.748;2.222;2022-11-15T15:23:25;22.70;;;10.43;;
29344;SDS011;16339;48.748;2.222;2022-11-15T15:25:55;18.63;;;10.43;;
29344;SDS011;16339;48.748;2.222;2022-11-15T15:28:25;22.45;;;11.68;;
29344;SDS011;16339;48.748;2.222;2022-11-15T15:30:54;20.83;;;11.73;;
29344;SDS011;16339;48.748;2.222;2022-11-15T15:33:27;19.63;;;11.02;;
29344;SDS011;16339;48.748;2.222;2022-11-15T15:35:56;20.02;;;11.80;;
29344;SDS011;16339;48.748;2.222;2022-11-15T15:38:24;22.45;;;12.20;;
29344;SDS011;16339;48.748;2.222;2022-11-15T15:40:53;19.83;;;12.07;;
29344;SDS011;16339;48.748;2.222;2022-11-15T15:43:24;25.38;;;12.45;;
29344;SDS011;16339;48.748;2.222;2022-11-15T15:45:53;24.23;;;12.35;;
29344;SDS011;16339;48.748;2.222;2022-11-15T15:48:22;26.92;;;13.18;;
29344;SDS011;16339;48.748;2.222;2022-11-15T15:50:53;24.50;;;12.52;;
29344;SDS011;16339;48.748;2.222;2022-11-15T15:53:21;20.10;;;12.18;;
29344;SDS011;16339;48.748;2.222;2022-11-15T15:55:50;21.02;;;11.93;;
29344;SDS011;16339;48.748;2.222;2022-11-15T15:58:19;19.58;;;12.13;;
29344;SDS011;16339;48.748;2.222;2022-11-15T16:00:48;16.48;;;9.30;;
29344;SDS011;16339;48.748;2.222;2022-11-15T16:03:16;17.80;;;10.73;;